Time;durP1;ratioP1;P1;durP2;ratioP2;P2;SDS_P1;SDS_P2;PMS_P1;PMS_P2;Temp;Humidity;BMP_temperature;BMP_pressure;BME280_temperature;BME280_humidity;BME280_pressure;Samples;Min_cycle;Max_cycle;Signal;HPM_P1;HPM_P2
2022/01/28 00:04:50;;;;;;;10.70;2.88;;;4.30;99.90;;;;;;5035774;28;20100;-78
2022/01/28 00:07:16;;;;;;;9.40;2.15;;;3.60;99.90;;;;;;5036113;28;20129;-77
2022/01/28 00:09:42;;;;;;;14.38;2.20;;;4.10;99.90;;;;;;5035835;28;20129;-79
2022/01/28 00:12:09;;;;;;;13.30;2.17;;;3.80;99.90;;;;;;5035417;28;20203;-78
2022/01/28 00:38:47;;;;;;;11.93;1.92;;;4.10;99.90;;;;;;5035846;28;20060;-79
2022/01/28 00:41:14;;;;;;;13.90;3.10;;;3.80;99.90;;;;;;5035023;28;20124;-80
2022/01/28 00:43:40;;;;;;;13.98;3.08;;;3.90;99.90;;;;;;5034998;28;20383;-79
2022/01/28 00:46:06;;;;;;;12.43;2.17;;;4.30;99.90;;;;;;5034641;28;20084;-79
2022/01/28 00:48:32;;;;;;;14.30;2.95;;;3.90;99.90;;;;;;5034068;28;20064;-80
2022/01/28 00:50:58;;;;;;;12.13;2.20;;;4.20;99.90;;;;;;5034982;28;20053;-80
2022/01/28 00:53:23;;;;;;;13.90;2.88;;;4.20;99.90;;;;;;5035178;28;20089;-78
2022/01/28 00:55:49;;;;;;;9.35;2.00;;;3.90;99.90;;;;;;5034895;28;20053;-79
2022/01/28 00:58:15;;;;;;;17.42;2.50;;;3.90;99.90;;;;;;5001166;28;20049;-78
2022/01/28 01:00:41;;;;;;;11.00;1.92;;;4.00;99.90;;;;;;5034955;28;20501;-80
2022/01/28 01:03:07;;;;;;;13.95;3.00;;;4.20;99.90;;;;;;5034778;28;20053;-80
2022/01/28 01:05:34;;;;;;;8.35;1.88;;;4.00;99.90;;;;;;5033918;28;20037;-78
2022/01/28 01:08:01;;;;;;;10.43;2.38;;;4.00;99.90;;;;;;5034739;28;20119;-79
2022/01/28 01:10:28;;;;;;;12.00;2.00;;;3.90;99.90;;;;;;5034977;28;20088;-79
2022/01/28 01:12:54;;;;;;;7.60;2.03;;;3.90;99.90;;;;;;5034862;28;20420;-79
2022/01/28 01:15:24;;;;;;;9.20;2.40;;;4.20;99.90;;;;;;5034876;28;20052;-80
2022/01/28 01:23:04;;;;;;;8.30;1.90;;;4.50;99.90;;;;;;5033673;28;20061;-79
2022/01/28 01:25:31;;;;;;;9.13;1.95;;;4.10;99.90;;;;;;5034456;28;20049;-79
2022/01/28 01:27:58;;;;;;;7.25;1.75;;;3.90;99.90;;;;;;5033673;28;20041;-79
2022/01/28 01:30:28;;;;;;;8.73;2.05;;;4.70;99.90;;;;;;5034342;28;20434;-80
2022/01/28 01:32:54;;;;;;;10.65;2.20;;;3.90;99.90;;;;;;5033232;28;20049;-78
2022/01/28 01:35:20;;;;;;;8.73;1.83;;;3.90;99.90;;;;;;5033970;28;20183;-79
2022/01/28 01:37:45;;;;;;;8.98;2.33;;;4.00;99.90;;;;;;5034742;28;20386;-78
2022/01/28 01:40:12;;;;;;;6.80;2.03;;;4.00;99.90;;;;;;5034084;28;20050;-78
2022/01/28 01:42:51;;;;;;;12.75;2.20;;;4.10;99.90;;;;;;5034008;28;20060;-77
2022/01/28 01:53:11;;;;;;;11.40;2.20;;;4.20;99.90;;;;;;5033961;28;20045;-79
2022/01/28 01:55:37;;;;;;;9.02;2.63;;;4.30;99.90;;;;;;5032390;28;20045;-80
2022/01/28 01:58:02;;;;;;;11.70;2.13;;;4.30;99.90;;;;;;5032890;28;20089;-79
2022/01/28 02:00:28;;;;;;;9.52;2.33;;;4.60;99.90;;;;;;5033737;28;20061;-79
2022/01/28 02:02:54;;;;;;;7.97;2.05;;;4.30;99.90;;;;;;5033106;28;20057;-79
2022/01/28 02:05:19;;;;;;;12.85;2.58;;;4.20;99.90;;;;;;5032954;28;20068;-79
2022/01/28 02:07:45;;;;;;;13.93;3.35;;;4.10;99.90;;;;;;5033568;28;20041;-78
2022/01/28 02:10:12;;;;;;;10.90;2.40;;;4.30;99.90;;;;;;5032692;28;20501;-79
2022/01/28 02:12:45;;;;;;;12.38;2.25;;;4.70;99.90;;;;;;5032670;28;20095;-77
2022/01/28 02:15:11;;;;;;;8.70;2.88;;;4.20;99.90;;;;;;5033386;28;20581;-80
2022/01/28 02:17:36;;;;;;;13.48;2.75;;;4.60;99.90;;;;;;5033826;28;20088;-79
2022/01/28 02:20:03;;;;;;;10.77;2.78;;;4.20;99.90;;;;;;5032533;28;20049;-79
2022/01/28 02:22:28;;;;;;;10.82;4.45;;;4.20;99.90;;;;;;5032385;28;20091;-79
2022/01/28 02:24:54;;;;;;;9.52;2.30;;;4.20;99.90;;;;;;5033482;28;20458;-79
2022/01/28 02:27:20;;;;;;;13.25;2.90;;;4.20;99.90;;;;;;5034001;28;20049;-78
2022/01/28 02:29:46;;;;;;;10.90;2.33;;;4.10;99.90;;;;;;5032855;28;20436;-79
2022/01/28 02:32:12;;;;;;;7.82;2.17;;;4.10;99.90;;;;;;5033470;28;20081;-79
2022/01/28 02:34:39;;;;;;;10.68;2.40;;;4.10;99.90;;;;;;5033703;28;20111;-77
2022/01/28 02:37:05;;;;;;;15.23;4.40;;;4.20;99.90;;;;;;5033380;28;20060;-79
2022/01/28 02:39:31;;;;;;;11.43;2.67;;;4.60;99.90;;;;;;5032665;28;20046;-79
2022/01/28 02:42:17;;;;;;;13.45;2.88;;;4.10;99.90;;;;;;5033385;28;20072;-79
2022/01/28 02:44:53;;;;;;;10.10;2.25;;;4.20;99.90;;;;;;5032086;28;20050;-78
2022/01/28 02:47:30;;;;;;;10.48;2.85;;;4.20;99.90;;;;;;5033788;28;20068;-79
2022/01/28 02:49:56;;;;;;;17.13;2.95;;;4.20;99.90;;;;;;5033196;28;20052;-79
2022/01/28 02:52:32;;;;;;;12.52;2.78;;;4.20;99.90;;;;;;5016110;28;20132;-79
2022/01/28 02:54:59;;;;;;;14.10;2.63;;;4.20;99.90;;;;;;5033308;28;20133;-79
2022/01/28 02:57:26;;;;;;;14.00;3.58;;;4.20;99.90;;;;;;5033171;28;20053;-79
2022/01/28 02:59:52;;;;;;;13.88;2.97;;;4.30;99.90;;;;;;5032473;28;20060;-79
2022/01/28 03:02:18;;;;;;;16.85;3.08;;;4.20;99.90;;;;;;5033118;28;20050;-78
2022/01/28 03:07:09;;;;;;;16.98;3.78;;;4.20;99.90;;;;;;5033603;28;20382;-79
2022/01/28 03:12:31;;;;;;;13.88;2.80;;;4.20;99.90;;;;;;4982984;28;20530;-80
2022/01/28 03:15:04;;;;;;;19.40;3.47;;;4.20;99.90;;;;;;5032846;28;20132;-78
2022/01/28 03:20:28;;;;;;;7.90;1.95;;;4.20;99.90;;;;;;5036642;28;20052;-80
2022/01/28 03:22:47;;;;;;;16.88;4.10;;;4.20;99.90;;;;;;5036631;28;20050;-79
2022/01/28 03:25:14;;;;;;;13.13;3.08;;;4.50;99.90;;;;;;5037042;28;20482;-80
2022/01/28 03:27:51;;;;;;;15.95;3.72;;;4.20;99.90;;;;;;5036707;28;20046;-79
2022/01/28 03:30:17;;;;;;;15.30;2.85;;;4.20;99.90;;;;;;5036678;28;20084;-79
2022/01/28 03:32:44;;;;;;;29.10;4.40;;;4.30;99.90;;;;;;5036638;28;20033;-78
2022/01/28 03:35:13;;;;;;;11.50;2.60;;;4.20;99.90;;;;;;5037069;28;20049;-79
2022/01/28 03:37:39;;;;;;;18.27;3.92;;;4.60;99.90;;;;;;5036550;28;20063;-80
2022/01/28 03:40:07;;;;;;;17.52;2.58;;;4.30;99.90;;;;;;5036898;28;20454;-80
2022/01/28 03:42:32;;;;;;;11.15;3.15;;;4.30;99.90;;;;;;5036409;28;20107;-79
2022/01/28 03:44:58;;;;;;;11.05;3.10;;;4.80;99.90;;;;;;5036533;28;20053;-79
2022/01/28 03:47:24;;;;;;;11.55;2.85;;;4.40;99.90;;;;;;5034981;28;20045;-78
2022/01/28 03:49:50;;;;;;;12.65;2.45;;;4.40;99.90;;;;;;5036192;28;20053;-80
2022/01/28 03:52:15;;;;;;;13.30;3.75;;;4.70;99.90;;;;;;5036157;28;20045;-79
2022/01/28 03:54:41;;;;;;;12.20;3.00;;;4.50;99.90;;;;;;5036136;28;20045;-78
2022/01/28 03:57:07;;;;;;;16.23;3.40;;;4.40;99.90;;;;;;5034868;28;20401;-79
2022/01/28 03:59:34;;;;;;;14.07;2.88;;;4.40;99.90;;;;;;5036085;28;20045;-79
2022/01/28 04:02:00;;;;;;;16.67;3.40;;;4.40;99.90;;;;;;5036745;28;20068;-81
2022/01/28 04:12:25;;;;;;;21.42;3.38;;;4.60;99.90;;;;;;5035823;28;20045;-79
2022/01/28 04:15:07;;;;;;;14.02;4.50;;;4.40;99.90;;;;;;5034231;28;20489;-78
2022/01/28 04:17:33;;;;;;;13.75;3.13;;;4.40;99.90;;;;;;5035829;28;20092;-79
2022/01/28 04:19:59;;;;;;;15.88;3.10;;;4.40;99.90;;;;;;5034417;28;20103;-78
2022/01/28 04:22:25;;;;;;;18.55;4.45;;;4.50;99.90;;;;;;5035743;28;20061;-79
2022/01/28 04:24:51;;;;;;;13.45;2.92;;;4.60;99.90;;;;;;5036110;28;20049;-79
2022/01/28 04:27:17;;;;;;;19.77;3.75;;;4.40;99.90;;;;;;5035503;28;20107;-76
2022/01/28 04:29:43;;;;;;;12.00;2.83;;;4.70;99.90;;;;;;5035325;28;20037;-78
2022/01/28 04:32:09;;;;;;;14.27;3.70;;;4.50;99.90;;;;;;5034502;28;20050;-78
2022/01/28 04:34:36;;;;;;;17.20;3.90;;;4.50;99.90;;;;;;5035413;28;20053;-79
2022/01/28 04:47:37;;;;;;;10.55;2.58;;;4.40;99.90;;;;;;5035319;28;20089;-77
2022/01/28 05:03:19;;;;;;;13.00;3.05;;;3.90;99.90;;;;;;5018181;28;20089;-77
2022/01/28 05:13:34;;;;;;;16.98;3.67;;;4.10;99.90;;;;;;5033415;28;20055;-77
2022/01/28 05:26:40;;;;;;;11.90;3.58;;;4.30;99.90;;;;;;5017289;28;20508;-76
2022/01/28 05:29:06;;;;;;;17.45;2.88;;;4.20;99.90;;;;;;5033466;28;20061;-76
2022/01/28 05:31:31;;;;;;;11.82;2.95;;;3.90;99.90;;;;;;5033377;28;20056;-76
2022/01/28 05:33:57;;;;;;;17.10;3.25;;;3.90;99.90;;;;;;5033138;28;20044;-76
2022/01/28 05:36:23;;;;;;;15.32;3.50;;;4.30;99.90;;;;;;5034991;28;20060;-78
2022/01/28 05:38:49;;;;;;;12.50;3.22;;;4.00;99.90;;;;;;5034225;28;20045;-77
2022/01/28 05:41:15;;;;;;;12.35;3.00;;;4.00;99.90;;;;;;5033736;28;20489;-77
2022/01/28 05:43:41;;;;;;;11.75;2.70;;;4.80;99.90;;;;;;5033939;28;20050;-76
2022/01/28 05:46:08;;;;;;;19.75;4.70;;;4.20;99.90;;;;;;5032952;28;20088;-77
2022/01/28 05:48:34;;;;;;;24.40;3.70;;;3.90;99.90;;;;;;5034057;28;20061;-78
2022/01/28 05:51:00;;;;;;;13.15;3.53;;;3.90;99.90;;;;;;5033297;28;20052;-76
2022/01/28 05:53:25;;;;;;;15.82;2.97;;;3.80;99.90;;;;;;5033046;28;20046;-77
2022/01/28 05:55:51;;;;;;;16.25;4.00;;;3.60;99.90;;;;;;5034523;28;20152;-77
2022/01/28 05:58:17;;;;;;;14.75;3.35;;;3.50;99.90;;;;;;5033828;28;20041;-77
2022/01/28 06:00:43;;;;;;;21.73;4.25;;;3.50;99.90;;;;;;5034609;28;20109;-78
2022/01/28 06:03:09;;;;;;;13.70;3.47;;;3.30;99.90;;;;;;5032512;28;20057;-78
2022/01/28 06:05:35;;;;;;;20.15;4.25;;;3.20;99.90;;;;;;5033792;28;20049;-77
2022/01/28 06:08:01;;;;;;;13.95;4.35;;;3.40;99.90;;;;;;5033782;28;20057;-79
2022/01/28 06:10:27;;;;;;;18.50;4.50;;;3.10;99.90;;;;;;5033683;28;20042;-79
2022/01/28 06:12:53;;;;;;;19.40;3.63;;;3.60;99.90;;;;;;5032772;28;20398;-78
2022/01/28 06:15:20;;;;;;;9.02;3.08;;;3.70;99.90;;;;;;5034365;28;20417;-77
2022/01/28 06:17:46;;;;;;;18.05;3.10;;;3.40;99.90;;;;;;5033439;28;20052;-78
2022/01/28 06:20:13;;;;;;;21.70;5.60;;;3.30;99.90;;;;;;5033483;28;20037;-76
2022/01/28 06:22:43;;;;;;;15.63;3.75;;;3.40;99.90;;;;;;5033346;28;20049;-76
2022/01/28 06:25:13;;;;;;;12.77;3.00;;;3.50;99.90;;;;;;5032529;28;20045;-76
2022/01/28 06:27:39;;;;;;;20.13;3.55;;;4.00;99.90;;;;;;5034589;28;20072;-76
2022/01/28 06:30:06;;;;;;;15.80;3.33;;;3.80;99.90;;;;;;5032774;28;20474;-76
2022/01/28 06:32:32;;;;;;;12.25;2.92;;;3.70;99.90;;;;;;5032494;28;20058;-76
2022/01/28 06:35:07;;;;;;;10.00;4.78;;;4.50;99.90;;;;;;5034232;28;20379;-76
2022/01/28 06:37:34;;;;;;;17.73;4.35;;;3.90;99.90;;;;;;5033990;28;20075;-76
2022/01/28 06:39:59;;;;;;;12.77;2.92;;;3.90;99.90;;;;;;5032079;28;20042;-78
2022/01/28 06:42:25;;;;;;;15.88;3.20;;;4.10;99.90;;;;;;5033325;28;20128;-76
2022/01/28 06:44:51;;;;;;;21.38;4.22;;;4.00;99.90;;;;;;5032302;28;20470;-76
2022/01/28 06:47:16;;;;;;;16.08;3.05;;;4.00;99.90;;;;;;5033166;28;20147;-77
2022/01/28 06:49:42;;;;;;;12.05;2.90;;;5.00;99.90;;;;;;5033272;28;20053;-76
2022/01/28 06:52:08;;;;;;;12.85;3.58;;;4.10;99.90;;;;;;5000917;28;20135;-75
2022/01/28 06:54:34;;;;;;;19.70;3.25;;;4.00;99.90;;;;;;5037548;28;20060;-77
2022/01/28 06:56:59;;;;;;;20.08;3.78;;;4.20;99.90;;;;;;5036672;28;20044;-76
2022/01/28 06:59:25;;;;;;;16.45;3.65;;;4.10;99.90;;;;;;5037911;28;20052;-76
2022/01/28 07:01:53;;;;;;;16.42;3.72;;;4.10;99.90;;;;;;5036745;28;20133;-76
2022/01/28 07:04:19;;;;;;;20.75;3.38;;;4.80;99.90;;;;;;5037599;28;20045;-76
2022/01/28 07:06:46;;;;;;;16.77;3.88;;;4.20;99.90;;;;;;5037293;28;20433;-76
2022/01/28 07:09:11;;;;;;;17.63;3.17;;;4.60;99.90;;;;;;5036067;28;20049;-77
2022/01/28 07:11:37;;;;;;;17.20;3.75;;;4.20;99.90;;;;;;5036916;28;20125;-77
2022/01/28 07:14:03;;;;;;;12.15;2.80;;;4.20;99.90;;;;;;5036799;28;20052;-76
2022/01/28 07:16:30;;;;;;;16.40;3.10;;;4.10;99.90;;;;;;5035890;28;20038;-77
2022/01/28 07:18:56;;;;;;;17.98;3.60;;;4.00;99.90;;;;;;5037372;28;20056;-78
2022/01/28 07:21:22;;;;;;;16.23;3.22;;;3.90;99.90;;;;;;5036750;28;20041;-76
2022/01/28 07:23:47;;;;;;;17.10;3.40;;;3.90;99.90;;;;;;5036740;28;20056;-78
2022/01/28 07:26:13;;;;;;;19.45;3.45;;;3.80;99.90;;;;;;5036548;28;20099;-78
2022/01/28 07:28:41;;;;;;;14.82;2.97;;;3.80;99.90;;;;;;5037447;28;20385;-80
2022/01/28 07:31:09;;;;;;;23.10;5.18;;;3.90;99.90;;;;;;5036637;28;20046;-77
2022/01/28 07:33:35;;;;;;;13.93;3.72;;;3.90;99.90;;;;;;5035382;28;20038;-71
2022/01/28 07:36:00;;;;;;;15.43;3.28;;;3.70;99.90;;;;;;5036489;28;20052;-72
2022/01/28 07:38:26;;;;;;;11.43;2.90;;;3.60;99.90;;;;;;5036861;28;20133;-71
2022/01/28 07:40:52;;;;;;;17.15;4.18;;;3.60;99.90;;;;;;5037138;28;20041;-71
2022/01/28 07:43:18;;;;;;;17.15;4.68;;;3.70;99.90;;;;;;5035960;28;20041;-73
2022/01/28 07:45:43;;;;;;;13.63;2.45;;;3.50;99.90;;;;;;5036298;28;20053;-72
2022/01/28 07:48:09;;;;;;;13.10;3.40;;;3.50;99.90;;;;;;5035104;28;20404;-72
2022/01/28 07:50:35;;;;;;;12.85;3.20;;;3.90;99.90;;;;;;5036684;28;20073;-72
2022/01/28 07:53:03;;;;;;;15.93;4.30;;;3.90;99.90;;;;;;5036237;28;20052;-72
2022/01/28 07:55:29;;;;;;;17.45;3.83;;;4.10;99.90;;;;;;5035687;28;20394;-71
2022/01/28 07:57:54;;;;;;;16.65;3.40;;;3.90;99.90;;;;;;5036639;28;20072;-71
2022/01/28 08:00:26;;;;;;;16.48;3.50;;;3.70;99.90;;;;;;5035009;28;20049;-72
2022/01/28 08:02:52;;;;;;;15.32;2.90;;;3.60;99.90;;;;;;5035511;28;20118;-72
2022/01/28 08:05:17;;;;;;;18.08;3.15;;;3.60;99.90;;;;;;5034498;28;20462;-72
2022/01/28 08:07:44;;;;;;;14.57;3.65;;;3.60;99.90;;;;;;5035931;28;20081;-73
2022/01/28 08:10:11;;;;;;;24.08;5.15;;;3.40;99.90;;;;;;5035792;28;20375;-72
2022/01/28 08:12:47;;;;;;;22.55;4.72;;;3.40;99.90;;;;;;5035844;28;20053;-72
2022/01/28 08:15:14;;;;;;;12.57;2.97;;;3.30;99.90;;;;;;5034417;28;20052;-73
2022/01/28 08:17:39;;;;;;;18.58;3.47;;;3.30;99.90;;;;;;5035684;28;20057;-72
2022/01/28 08:20:06;;;;;;;21.05;3.78;;;3.10;99.90;;;;;;5018135;28;20072;-72
2022/01/28 08:22:32;;;;;;;17.92;3.45;;;3.10;99.90;;;;;;5034440;28;20045;-72
2022/01/28 08:24:57;;;;;;;15.60;3.45;;;3.70;99.90;;;;;;5035594;28;20048;-72
2022/01/28 08:27:23;;;;;;;21.55;3.38;;;3.40;99.90;;;;;;5035563;28;20042;-72
2022/01/28 08:29:48;;;;;;;12.00;3.10;;;3.50;99.90;;;;;;5035563;28;20103;-74
2022/01/28 08:32:14;;;;;;;13.07;2.97;;;3.50;99.90;;;;;;5035449;28;20042;-72
2022/01/28 08:34:40;;;;;;;17.17;3.88;;;3.50;99.90;;;;;;5034823;28;20076;-81
2022/01/28 08:37:06;;;;;;;14.57;3.08;;;3.90;99.90;;;;;;5034142;28;20041;-79
2022/01/28 08:39:34;;;;;;;15.40;4.43;;;3.70;99.90;;;;;;5017604;28;20049;-81
2022/01/28 08:42:00;;;;;;;12.60;5.88;;;3.80;99.90;;;;;;5017196;28;20048;-76
2022/01/28 08:44:26;;;;;;;13.27;3.05;;;4.50;99.90;;;;;;5034120;28;20037;-76
2022/01/28 08:46:52;;;;;;;17.33;4.50;;;4.00;99.90;;;;;;5035169;28;20068;-77
2022/01/28 08:49:18;;;;;;;14.45;2.95;;;4.00;99.90;;;;;;5035707;28;20095;-76
2022/01/28 08:51:44;;;;;;;12.93;3.45;;;4.10;99.90;;;;;;5035373;28;20081;-80
2022/01/28 08:54:09;;;;;;;15.57;3.88;;;4.10;99.90;;;;;;5017725;28;20531;-82
2022/01/28 08:56:35;;;;;;;14.60;2.58;;;4.10;99.90;;;;;;5018328;28;20081;-80
2022/01/28 08:59:01;;;;;;;12.52;3.50;;;4.60;99.90;;;;;;5018252;28;20050;-80
2022/01/28 09:01:28;;;;;;;21.05;3.30;;;4.10;99.90;;;;;;5018082;28;20095;-80
2022/01/28 09:03:54;;;;;;;11.18;3.20;;;4.10;99.90;;;;;;5033891;28;20049;-80
2022/01/28 09:06:20;;;;;;;17.98;2.85;;;4.10;99.90;;;;;;5034093;28;20497;-79
2022/01/28 09:08:47;;;;;;;10.60;2.65;;;4.10;99.90;;;;;;5033734;28;20050;-78
2022/01/28 09:14:04;;;;;;;17.63;3.20;;;4.20;99.90;;;;;;4996314;28;20390;-76
2022/01/28 09:16:30;;;;;;;23.17;4.40;;;4.20;99.90;;;;;;5034370;28;20051;-80
2022/01/28 09:18:56;;;;;;;16.55;2.85;;;4.30;99.90;;;;;;5034506;28;20041;-78
2022/01/28 09:21:21;;;;;;;18.35;3.17;;;4.90;99.90;;;;;;5033337;28;20045;-77
2022/01/28 09:23:47;;;;;;;15.63;3.88;;;4.40;99.90;;;;;;5034451;28;20045;-77
2022/01/28 09:26:14;;;;;;;22.58;4.45;;;4.50;99.90;;;;;;5034372;28;20088;-74
2022/01/28 09:28:40;;;;;;;16.10;2.95;;;4.70;99.90;;;;;;5034314;28;20084;-72
2022/01/28 09:31:06;;;;;;;15.80;3.70;;;4.80;99.90;;;;;;5034578;28;20136;-72
2022/01/28 09:33:31;;;;;;;23.85;3.50;;;4.90;99.90;;;;;;5033906;28;20486;-70
2022/01/28 09:35:57;;;;;;;11.60;3.10;;;4.90;99.90;;;;;;5034259;28;20091;-74
2022/01/28 09:38:23;;;;;;;15.45;2.58;;;4.90;99.90;;;;;;5034245;28;20042;-73
2022/01/28 09:40:50;;;;;;;16.63;3.85;;;4.80;99.90;;;;;;5032915;28;20044;-72
2022/01/28 09:43:16;;;;;;;19.63;3.30;;;5.10;99.90;;;;;;5034030;28;20091;-75
2022/01/28 09:45:47;;;;;;;14.50;3.30;;;5.10;99.90;;;;;;5034537;28;20045;-75
2022/01/28 09:48:13;;;;;;;15.98;2.95;;;5.10;99.90;;;;;;5033873;28;20478;-77
2022/01/28 09:50:39;;;;;;;17.23;3.80;;;5.70;99.90;;;;;;5033224;28;20115;-77
2022/01/28 09:53:04;;;;;;;15.43;2.97;;;5.30;99.90;;;;;;5016348;28;20041;-75
2022/01/28 09:55:30;;;;;;;11.88;4.47;;;5.50;99.90;;;;;;5033911;28;20502;-76
2022/01/28 09:58:00;;;;;;;13.63;2.63;;;5.40;99.90;;;;;;5032893;28;20045;-75
2022/01/28 10:00:27;;;;;;;12.52;2.90;;;5.40;99.90;;;;;;5033800;28;20492;-71
2022/01/28 10:03:03;;;;;;;16.98;2.63;;;5.50;99.90;;;;;;5033790;28;20049;-71
2022/01/28 10:05:37;;;;;;;23.50;5.03;;;5.60;99.90;;;;;;5034093;28;20053;-72
2022/01/28 10:08:14;;;;;;;17.30;3.05;;;5.80;99.90;;;;;;5033672;28;20103;-71
2022/01/28 10:10:40;;;;;;;;;;;6.00;99.90;;;;;;5033413;28;20091;-71
2022/01/28 10:13:08;;;;;;;;;;;6.00;99.90;;;;;;5032912;28;20309;-71
2022/01/28 10:15:34;;;;;;;21.10;3.33;;;6.00;99.90;;;;;;5033972;28;19921;-70
2022/01/28 10:17:59;;;;;;;18.27;5.43;;;6.10;99.90;;;;;;5033773;28;20103;-70
2022/01/28 10:20:26;;;;;;;17.70;3.15;;;6.10;99.90;;;;;;5032289;28;20042;-71
2022/01/28 10:23:01;;;;;;;13.73;3.95;;;6.10;99.90;;;;;;5033551;28;20056;-71
2022/01/28 10:25:33;;;;;;;11.63;2.92;;;6.10;99.90;;;;;;5033564;28;20094;-71
2022/01/28 10:28:02;;;;;;;17.90;3.38;;;6.10;99.90;;;;;;5033562;28;20492;-70
2022/01/28 10:30:29;;;;;;;18.55;4.32;;;6.20;99.90;;;;;;5032404;28;20053;-71
2022/01/28 10:33:22;;;;;;;13.73;3.13;;;6.10;99.90;;;;;;5033088;28;20478;-71
2022/01/28 10:35:53;;;;;;;16.70;4.68;;;6.20;99.90;;;;;;5033395;28;20049;-72
2022/01/28 10:38:27;;;;;;;16.90;4.30;;;6.20;99.90;;;;;;5032922;28;20046;-70
2022/01/28 10:41:13;;;;;;;15.68;3.22;;;6.20;99.90;;;;;;5033793;28;20041;-72
2022/01/28 10:43:52;;;;;;;15.45;3.05;;;6.30;99.90;;;;;;5034033;28;20433;-71
2022/01/28 10:46:27;;;;;;;13.82;3.45;;;6.40;99.90;;;;;;5033184;28;20108;-71
2022/01/28 10:48:58;;;;;;;11.43;3.08;;;6.80;99.90;;;;;;5033101;28;20076;-71
2022/01/28 10:51:42;;;;;;;15.88;3.35;;;7.30;99.90;;;;;;5033973;28;20158;-71
2022/01/28 10:54:13;;;;;;;14.82;3.65;;;7.50;99.90;;;;;;5033121;28;20123;-70
2022/01/28 10:56:50;;;;;;;14.90;3.42;;;7.50;99.90;;;;;;5033300;28;20054;-70
2022/01/28 10:59:19;;;;;;;14.13;3.45;;;7.50;99.90;;;;;;5033178;28;20077;-71
2022/01/28 11:01:46;;;;;;;12.07;3.03;;;7.80;99.90;;;;;;5033113;28;20208;-70
2022/01/28 11:04:14;;;;;;;20.10;3.88;;;8.00;99.90;;;;;;5033739;28;20049;-69
2022/01/28 11:06:42;;;;;;;13.75;3.20;;;8.00;99.90;;;;;;5033183;28;20466;-73
2022/01/28 11:09:09;;;;;;;12.38;3.10;;;8.00;99.90;;;;;;5031954;28;20132;-73
2022/01/28 11:11:35;;;;;;;20.25;4.07;;;8.00;99.90;;;;;;5032805;28;20520;-73
2022/01/28 11:14:02;;;;;;;18.67;3.10;;;8.00;99.90;;;;;;5033024;28;20084;-72
2022/01/28 11:16:28;;;;;;;15.85;3.50;;;8.00;99.90;;;;;;5033747;28;20223;-71
2022/01/28 11:18:55;;;;;;;14.05;3.78;;;8.20;99.90;;;;;;5033503;28;20367;-72
2022/01/28 11:21:46;;;;;;;16.60;4.28;;;8.10;99.90;;;;;;5031746;28;20045;-72
2022/01/28 11:24:20;;;;;;;14.10;3.20;;;8.20;99.90;;;;;;5032562;28;20381;-71
2022/01/28 11:27:10;;;;;;;13.45;3.40;;;8.40;99.90;;;;;;5032521;28;20362;-71
2022/01/28 11:29:36;;;;;;;15.48;3.00;;;8.40;99.90;;;;;;5033719;28;20131;-72
2022/01/28 11:32:14;;;;;;;13.38;3.05;;;8.40;99.90;;;;;;5031677;28;20450;-72
2022/01/28 11:34:55;;;;;;;13.23;3.65;;;8.40;99.90;;;;;;5033411;28;20053;-72
2022/01/28 11:37:30;;;;;;;11.57;2.92;;;8.40;99.90;;;;;;5032935;28;20045;-74
2022/01/28 11:40:15;;;;;;;20.52;4.03;;;8.20;99.90;;;;;;5036414;28;20133;-73
2022/01/28 11:42:41;;;;;;;12.57;3.00;;;8.20;99.90;;;;;;5036485;28;20047;-69
2022/01/28 11:45:10;;;;;;;16.98;3.05;;;8.00;99.90;;;;;;5035944;28;20076;-72
2022/01/28 11:47:39;;;;;;;14.77;3.38;;;7.80;99.90;;;;;;5036212;28;20053;-72
2022/01/28 11:50:09;;;;;;;13.98;3.05;;;7.50;99.90;;;;;;5036064;28;20107;-72
2022/01/28 11:52:47;;;;;;;9.48;2.70;;;7.40;99.90;;;;;;5036675;28;20049;-72
2022/01/28 11:55:20;;;;;;;15.90;2.55;;;7.20;99.90;;;;;;5036171;28;20042;-72
2022/01/28 11:57:54;;;;;;;13.27;2.55;;;7.20;99.90;;;;;;5036981;28;20049;-71
2022/01/28 12:00:23;;;;;;;13.85;3.10;;;7.10;99.90;;;;;;5035974;28;20089;-71
2022/01/28 12:02:51;;;;;;;11.18;2.75;;;7.00;99.90;;;;;;5036226;28;20144;-72
2022/01/28 12:05:29;;;;;;;15.35;3.88;;;6.90;99.90;;;;;;5036517;28;20128;-71
2022/01/28 12:07:55;;;;;;;14.77;2.97;;;6.90;99.90;;;;;;5035873;28;20072;-70
2022/01/28 12:10:23;;;;;;;18.75;3.35;;;6.90;99.90;;;;;;5035745;28;20045;-70
2022/01/28 12:13:05;;;;;;;15.18;4.07;;;7.10;99.90;;;;;;5035587;28;20560;-72
2022/01/28 12:16:00;;;;;;;11.80;2.80;;;7.20;99.90;;;;;;5036150;28;20060;-71
2022/01/28 12:18:46;;;;;;;17.02;3.90;;;7.40;99.90;;;;;;5035645;28;20128;-71
2022/01/28 12:21:14;;;;;;;11.30;2.50;;;7.50;99.90;;;;;;5034877;28;20057;-72
2022/01/28 12:23:39;;;;;;;14.57;3.88;;;7.40;99.90;;;;;;5036163;28;20056;-72
2022/01/28 12:26:06;;;;;;;15.05;4.55;;;7.30;99.90;;;;;;5035700;28;20470;-72
2022/01/28 12:28:31;;;;;;;14.60;2.80;;;7.20;99.90;;;;;;5036244;28;20048;-72
2022/01/28 12:31:05;;;;;;;12.90;2.85;;;7.20;99.90;;;;;;5035164;28;20557;-72
2022/01/28 12:33:38;;;;;;;14.82;2.72;;;7.20;99.90;;;;;;5035411;28;20045;-72
2022/01/28 12:36:21;;;;;;;13.52;3.08;;;7.30;99.90;;;;;;5035952;28;20056;-71
2022/01/28 12:39:08;;;;;;;14.70;3.03;;;7.20;99.90;;;;;;5035058;28;20072;-72
2022/01/28 12:41:43;;;;;;;11.30;2.30;;;7.50;99.90;;;;;;5035381;28;20446;-72
2022/01/28 12:44:11;;;;;;;14.25;3.05;;;7.40;99.90;;;;;;5035201;28;20041;-71
2022/01/28 12:46:39;;;;;;;12.45;3.03;;;7.30;99.90;;;;;;5035159;28;20045;-71
2022/01/28 12:49:09;;;;;;;15.32;3.25;;;7.20;99.90;;;;;;5033613;28;20053;-72
2022/01/28 12:51:39;;;;;;;16.55;3.63;;;7.10;99.90;;;;;;5034951;28;20048;-71
2022/01/28 12:54:05;;;;;;;13.10;4.25;;;7.00;99.90;;;;;;5034309;28;20124;-72
2022/01/28 12:56:38;;;;;;;14.00;3.55;;;7.00;99.90;;;;;;5034868;28;20075;-72
2022/01/28 12:59:05;;;;;;;18.33;3.35;;;6.90;99.90;;;;;;5035323;28;20076;-72
2022/01/28 13:01:31;;;;;;;15.98;3.75;;;6.80;99.90;;;;;;5034701;28;20042;-72
2022/01/28 13:04:17;;;;;;;15.30;3.15;;;6.70;99.90;;;;;;5034537;28;20049;-72
2022/01/28 13:09:24;;;;;;;13.23;2.63;;;6.70;99.90;;;;;;5034600;28;20049;-72
2022/01/28 13:11:53;;;;;;;12.98;3.17;;;7.00;99.90;;;;;;5034651;28;20128;-72
2022/01/28 13:14:37;;;;;;;13.20;3.15;;;6.90;99.90;;;;;;5033726;28;20041;-72
2022/01/28 13:17:08;;;;;;;14.48;2.83;;;7.10;99.90;;;;;;5033882;28;20147;-71
2022/01/28 13:19:34;;;;;;;15.63;3.15;;;7.20;99.90;;;;;;5034616;28;20044;-72
2022/01/28 13:22:00;;;;;;;11.57;3.30;;;7.50;99.90;;;;;;5034978;28;20458;-71
2022/01/28 13:24:27;;;;;;;13.27;3.97;;;7.80;99.90;;;;;;5034457;28;20049;-73
2022/01/28 13:27:00;;;;;;;12.70;2.83;;;8.00;99.90;;;;;;5034128;28;20497;-72
2022/01/28 13:29:35;;;;;;;12.27;2.83;;;8.00;99.90;;;;;;5034386;28;20418;-73
2022/01/28 13:32:06;;;;;;;15.20;3.17;;;7.70;99.90;;;;;;5034885;28;20050;-72
2022/01/28 13:34:56;;;;;;;11.27;2.70;;;7.60;99.90;;;;;;5034362;28;20045;-72
2022/01/28 13:37:39;;;;;;;13.25;2.58;;;7.70;99.90;;;;;;5029939;28;20049;-71
2022/01/28 13:40:29;;;;;;;13.15;2.53;;;7.50;99.90;;;;;;5034162;28;20091;-73
2022/01/28 13:43:03;;;;;;;10.23;2.17;;;7.70;99.90;;;;;;5025017;28;20136;-73
2022/01/28 13:45:38;;;;;;;6.93;2.17;;;7.60;99.90;;;;;;5034605;28;20045;-72
2022/01/28 13:48:18;;;;;;;7.80;2.65;;;7.40;99.90;;;;;;5034630;28;20107;-72
2022/01/28 13:50:46;;;;;;;15.07;3.95;;;7.20;99.90;;;;;;5034560;28;20041;-73
2022/01/28 13:53:35;;;;;;;13.85;2.42;;;7.00;99.90;;;;;;5033600;28;20045;-72
2022/01/28 13:56:01;;;;;;;8.77;2.75;;;6.90;99.90;;;;;;5033540;28;20490;-71
2022/01/28 13:58:29;;;;;;;11.93;2.45;;;6.90;99.90;;;;;;5032779;28;20060;-71
2022/01/28 14:00:55;;;;;;;14.05;4.43;;;7.00;99.90;;;;;;5033722;28;20120;-71
2022/01/28 14:03:27;;;;;;;11.70;2.53;;;7.10;99.90;;;;;;5033790;28;20073;-72
2022/01/28 14:06:01;;;;;;;11.32;3.17;;;7.20;99.90;;;;;;5033617;28;20091;-71
2022/01/28 14:08:38;;;;;;;13.88;3.17;;;7.30;99.90;;;;;;5033724;28;20081;-72
2022/01/28 14:11:31;;;;;;;11.82;2.40;;;7.10;99.90;;;;;;5033662;28;20088;-72
2022/01/28 14:14:15;;;;;;;12.73;2.75;;;6.90;99.90;;;;;;5033071;28;20045;-83
2022/01/28 14:16:42;;;;;;;16.23;3.80;;;6.80;99.90;;;;;;5032985;28;20056;-82
2022/01/28 14:19:07;;;;;;;10.73;3.13;;;6.70;99.90;;;;;;5032277;28;20049;-83
2022/01/28 14:21:33;;;;;;;10.98;3.15;;;6.60;99.90;;;;;;5033116;28;20042;-84
2022/01/28 14:23:59;;;;;;;9.95;2.75;;;6.70;99.90;;;;;;5032875;28;20076;-83
2022/01/28 14:26:25;;;;;;;12.40;3.08;;;6.50;99.90;;;;;;5032693;28;20050;-80
2022/01/28 14:31:23;;;;;;;10.77;2.50;;;6.50;99.90;;;;;;5032400;28;20053;-83
2022/01/28 14:33:49;;;;;;;12.02;2.72;;;6.50;99.90;;;;;;5033355;28;20068;-83
2022/01/28 14:36:16;;;;;;;18.50;4.05;;;6.50;99.90;;;;;;5015951;28;20566;-84
2022/01/28 14:38:42;;;;;;;18.23;3.20;;;6.50;99.90;;;;;;5032413;28;20072;-83
2022/01/28 14:41:10;;;;;;;14.15;2.90;;;6.50;99.90;;;;;;5033320;28;20061;-84
2022/01/28 14:43:35;;;;;;;6.45;2.33;;;6.50;99.90;;;;;;5033383;28;20053;-80